LIRN/NAP METAR and TAF weather

Enter ICAO airport designator
Station Type Date Time Source
LIRN METAR 2020/03/31 13:50 UTC NOAA

LIRN 311350Z 10005KT 9999 BKN040 13/10 Q1014 NOSIG


Station Type Date Time Source
LIRN Decoded METAR 2020/03/31 13:50 UTC NOAA

Napoli / Capodichino, Italy (LIRN) 40-51N 014-18E 72M
Mar 31, 2020 - 09:50 AM EDT / 2020.03.31 1350 UTC
Wind: from the E (100 degrees) at 6 MPH (5 KT):0
Visibility: greater than 7 mile(s):0
Sky conditions: mostly cloudy
Temperature: 55 F (13 C)
Dew Point: 50 F (10 C)
Relative Humidity: 81%
Pressure (altimeter): 29.94 in. Hg (1014 hPa)
ob: LIRN 311350Z 10005KT 9999 BKN040 13/10 Q1014 NOSIG
cycle: 14

Station Type Date Time Source
LIRN TAF 2020/03/31 12:23 UTC NOAA

TAF LIRN 311100Z 3112/0112 04010KT 9999 SCT030
TEMPO 3112/3124 4000 RA

Example: see airport list